Time;durP1;ratioP1;P1;durP2;ratioP2;P2;SDS_P1;SDS_P2;PMS_P1;PMS_P2;Temp;Humidity;BMP_temperature;BMP_pressure;BME280_temperature;BME280_humidity;BME280_pressure;Samples;Min_cycle;Max_cycle;Signal;HPM_P1;HPM_P2
2023/12/22 00:02:14;;;;;;;21.90;18.70;;;;;;;;;;5124784;27;20452;-76
2023/12/22 00:04:41;;;;;;;17.33;16.25;;;;;;;;;;5111050;28;20221;-76
2023/12/22 00:07:08;;;;;;;22.73;18.30;;;;;;;;;;5111328;28;20230;-76
2023/12/22 00:09:35;;;;;;;19.20;17.77;;;;;;;;;;5111405;28;20306;-77
2023/12/22 00:12:04;;;;;;;18.80;17.45;;;;;;;;;;5110698;28;20513;-77
2023/12/22 00:14:31;;;;;;;19.20;17.33;;;;;;;;;;5111085;28;20730;-76
2023/12/22 00:16:58;;;;;;;26.27;18.80;;;;;;;;;;5110829;28;20218;-77
2023/12/22 00:19:25;;;;;;;16.88;15.73;;;;;;;;;;5111072;28;20209;-76
2023/12/22 00:21:52;;;;;;;20.13;18.08;;;;;;;;;;5110561;28;20198;-77
2023/12/22 00:24:19;;;;;;;20.05;17.83;;;;;;;;;;5111066;28;20583;-77
2023/12/22 00:26:46;;;;;;;17.98;16.63;;;;;;;;;;5110391;28;20724;-76
2023/12/22 00:29:14;;;;;;;17.50;16.60;;;;;;;;;;5110692;28;20206;-77
2023/12/22 00:31:41;;;;;;;18.75;17.00;;;;;;;;;;5110372;28;20271;-78
2023/12/22 00:34:08;;;;;;;18.60;17.35;;;;;;;;;;5110901;28;20228;-76
2023/12/22 00:36:35;;;;;;;19.08;17.40;;;;;;;;;;5110764;28;20244;-76
2023/12/22 00:39:02;;;;;;;19.52;18.27;;;;;;;;;;5110920;28;20227;-78
2023/12/22 00:41:29;;;;;;;18.33;16.77;;;;;;;;;;5110493;28;20286;-77
2023/12/22 00:43:56;;;;;;;18.05;16.33;;;;;;;;;;5110739;28;20221;-76
2023/12/22 00:46:25;;;;;;;20.77;18.70;;;;;;;;;;5110759;28;20273;-77
2023/12/22 00:48:52;;;;;;;18.67;16.83;;;;;;;;;;5111048;28;20202;-76
2023/12/22 00:51:19;;;;;;;18.65;17.33;;;;;;;;;;5110141;28;20342;-76
2023/12/22 00:53:45;;;;;;;19.80;18.00;;;;;;;;;;5110429;28;20252;-76
2023/12/22 00:56:13;;;;;;;23.77;19.73;;;;;;;;;;5110593;28;20226;-76
2023/12/22 00:58:40;;;;;;;23.40;19.90;;;;;;;;;;5110796;28;20210;-77
2023/12/22 01:01:07;;;;;;;18.50;16.85;;;;;;;;;;5109998;28;20224;-76
2023/12/22 01:03:36;;;;;;;20.00;18.08;;;;;;;;;;5110187;28;21013;-76
2023/12/22 01:06:03;;;;;;;19.05;17.60;;;;;;;;;;5110321;28;20206;-76
2023/12/22 01:08:30;;;;;;;24.55;18.80;;;;;;;;;;5110458;28;20210;-76
2023/12/22 01:10:57;;;;;;;23.73;20.60;;;;;;;;;;5109632;28;20231;-76
2023/12/22 01:13:24;;;;;;;25.00;18.80;;;;;;;;;;5110137;28;20206;-76
2023/12/22 01:15:51;;;;;;;21.30;19.40;;;;;;;;;;5110608;28;20240;-78
2023/12/22 01:18:18;;;;;;;26.83;19.02;;;;;;;;;;5110475;28;20478;-77
2023/12/22 01:20:46;;;;;;;24.83;18.87;;;;;;;;;;5109861;28;20322;-76
2023/12/22 01:23:13;;;;;;;21.00;18.95;;;;;;;;;;5110397;28;20475;-76
2023/12/22 01:25:40;;;;;;;20.10;18.38;;;;;;;;;;5110304;28;20279;-77
2023/12/22 01:28:07;;;;;;;22.27;20.45;;;;;;;;;;5110204;28;20271;-77
2023/12/22 01:30:34;;;;;;;20.88;19.13;;;;;;;;;;5109970;28;20286;-76
2023/12/22 01:33:01;;;;;;;24.03;19.13;;;;;;;;;;5110422;28;20212;-76
2023/12/22 01:35:28;;;;;;;19.63;18.53;;;;;;;;;;5110369;28;20440;-77
2023/12/22 01:37:57;;;;;;;20.55;18.80;;;;;;;;;;5110117;28;20460;-77
2023/12/22 01:40:24;;;;;;;19.35;18.10;;;;;;;;;;5113113;28;20255;-77
2023/12/22 01:42:51;;;;;;;19.70;18.10;;;;;;;;;;5113439;28;20214;-76
2023/12/22 01:45:18;;;;;;;18.70;17.60;;;;;;;;;;5113992;28;20889;-76
2023/12/22 01:47:46;;;;;;;19.55;18.02;;;;;;;;;;5113580;28;20295;-76
2023/12/22 01:50:14;;;;;;;20.83;18.88;;;;;;;;;;5114011;28;20555;-76
2023/12/22 01:52:43;;;;;;;20.73;19.05;;;;;;;;;;5113101;28;20244;-75
2023/12/22 01:55:12;;;;;;;20.52;18.75;;;;;;;;;;5113553;28;20263;-76
2023/12/22 01:57:40;;;;;;;19.88;18.30;;;;;;;;;;5113744;28;20275;-77
2023/12/22 02:00:08;;;;;;;20.58;18.85;;;;;;;;;;5113536;28;20255;-77
2023/12/22 02:02:35;;;;;;;20.35;18.35;;;;;;;;;;5112183;28;20210;-76
2023/12/22 02:05:02;;;;;;;20.87;18.90;;;;;;;;;;5113377;28;20247;-76
2023/12/22 02:07:29;;;;;;;19.67;18.00;;;;;;;;;;5113271;28;20471;-76
2023/12/22 02:09:56;;;;;;;18.73;17.67;;;;;;;;;;5113603;28;20198;-77
2023/12/22 02:12:24;;;;;;;19.67;18.27;;;;;;;;;;5112790;28;20202;-76
2023/12/22 02:14:51;;;;;;;19.38;17.80;;;;;;;;;;5112973;28;20206;-76
2023/12/22 02:17:22;;;;;;;20.75;18.63;;;;;;;;;;5113138;28;20230;-76
2023/12/22 02:19:50;;;;;;;20.17;18.60;;;;;;;;;;5113484;28;20187;-76
2023/12/22 02:22:17;;;;;;;19.55;17.90;;;;;;;;;;5112573;28;20206;-78
2023/12/22 02:24:45;;;;;;;26.85;18.40;;;;;;;;;;5113023;28;20257;-76
2023/12/22 02:27:16;;;;;;;18.08;16.58;;;;;;;;;;5113242;28;20222;-77
2023/12/22 02:29:44;;;;;;;21.33;19.45;;;;;;;;;;5112794;28;20206;-75
2023/12/22 02:32:13;;;;;;;20.63;18.60;;;;;;;;;;5112275;28;20919;-77
2023/12/22 02:34:41;;;;;;;19.83;18.05;;;;;;;;;;5112866;28;20210;-76
2023/12/22 02:37:09;;;;;;;21.42;19.13;;;;;;;;;;5112708;28;20279;-77
2023/12/22 02:39:37;;;;;;;20.45;18.95;;;;;;;;;;5112951;28;20202;-77
2023/12/22 02:42:06;;;;;;;18.35;17.20;;;;;;;;;;5120826;27;20198;-76
2023/12/22 02:44:33;;;;;;;20.88;18.65;;;;;;;;;;5112272;28;20601;-76
2023/12/22 02:47:00;;;;;;;20.75;19.20;;;;;;;;;;5112723;28;20435;-76
2023/12/22 02:49:27;;;;;;;19.52;17.77;;;;;;;;;;5093902;28;20662;-78
2023/12/22 02:51:54;;;;;;;19.33;17.77;;;;;;;;;;5091368;28;20211;-76
2023/12/22 02:54:21;;;;;;;22.60;19.50;;;;;;;;;;5091947;28;20259;-76
2023/12/22 02:56:48;;;;;;;20.10;18.52;;;;;;;;;;5091846;28;20280;-78
2023/12/22 02:59:16;;;;;;;21.40;19.25;;;;;;;;;;5091644;28;20279;-76
2023/12/22 03:01:43;;;;;;;20.27;18.75;;;;;;;;;;5090768;28;20210;-77
2023/12/22 03:04:10;;;;;;;21.55;19.65;;;;;;;;;;5091884;28;20214;-77
2023/12/22 03:06:37;;;;;;;21.17;18.75;;;;;;;;;;5091687;28;20593;-77
2023/12/22 03:09:04;;;;;;;23.10;18.27;;;;;;;;;;5091618;28;20203;-77
2023/12/22 03:11:31;;;;;;;19.17;17.45;;;;;;;;;;5091107;28;20572;-76
2023/12/22 03:13:59;;;;;;;19.77;18.23;;;;;;;;;;5091704;28;20214;-77
2023/12/22 03:16:27;;;;;;;19.58;17.60;;;;;;;;;;5091705;28;20227;-77
2023/12/22 03:18:54;;;;;;;19.20;17.48;;;;;;;;;;5091637;28;20202;-76
2023/12/22 03:21:21;;;;;;;19.40;17.63;;;;;;;;;;5091012;28;20211;-76
2023/12/22 03:23:48;;;;;;;19.40;17.70;;;;;;;;;;5091582;28;20237;-76
2023/12/22 03:26:15;;;;;;;19.20;17.55;;;;;;;;;;5090931;28;20230;-78
2023/12/22 03:28:42;;;;;;;18.33;16.90;;;;;;;;;;5090948;28;20198;-77
2023/12/22 03:31:09;;;;;;;21.65;18.20;;;;;;;;;;5090834;28;20303;-76
2023/12/22 03:33:37;;;;;;;20.88;18.35;;;;;;;;;;5091394;28;20210;-76
2023/12/22 03:36:04;;;;;;;18.13;16.92;;;;;;;;;;5091297;28;20229;-77
2023/12/22 03:38:31;;;;;;;20.42;18.33;;;;;;;;;;5090982;28;20260;-77
2023/12/22 03:40:58;;;;;;;19.77;17.83;;;;;;;;;;5090394;28;20228;-76
2023/12/22 03:43:25;;;;;;;17.92;16.80;;;;;;;;;;5090946;28;20199;-76
2023/12/22 03:45:52;;;;;;;18.40;16.90;;;;;;;;;;5090707;28;20223;-76
2023/12/22 03:48:19;;;;;;;18.05;17.05;;;;;;;;;;5090609;28;20211;-76
2023/12/22 03:50:48;;;;;;;19.90;17.42;;;;;;;;;;5099778;28;20723;-76
2023/12/22 03:53:14;;;;;;;19.80;18.58;;;;;;;;;;5111414;28;20206;-76
2023/12/22 03:55:41;;;;;;;20.27;18.37;;;;;;;;;;5111323;28;20251;-75
2023/12/22 03:58:10;;;;;;;19.07;17.60;;;;;;;;;;5111004;28;20572;-75
2023/12/22 04:00:37;;;;;;;18.43;17.03;;;;;;;;;;5110167;28;20550;-76
2023/12/22 04:03:04;;;;;;;19.02;17.65;;;;;;;;;;5110376;28;20460;-77
2023/12/22 04:05:31;;;;;;;20.57;18.40;;;;;;;;;;5110680;28;20304;-76
2023/12/22 04:07:59;;;;;;;18.95;17.52;;;;;;;;;;5110792;28;21317;-76
2023/12/22 04:10:26;;;;;;;19.17;17.48;;;;;;;;;;5110132;27;20656;-79
2023/12/22 04:12:53;;;;;;;21.65;18.35;;;;;;;;;;5090896;28;20198;-76
2023/12/22 04:15:20;;;;;;;19.60;18.03;;;;;;;;;;5092482;28;20232;-77
2023/12/22 04:17:47;;;;;;;23.40;18.27;;;;;;;;;;5090586;28;20513;-75
2023/12/22 04:20:14;;;;;;;18.10;17.10;;;;;;;;;;5090566;28;20279;-76
2023/12/22 04:22:41;;;;;;;19.77;18.20;;;;;;;;;;5089982;28;20260;-77
2023/12/22 04:25:09;;;;;;;17.52;16.38;;;;;;;;;;5090364;28;20296;-75
2023/12/22 04:27:37;;;;;;;17.05;16.25;;;;;;;;;;5089968;28;20770;-76
2023/12/22 04:30:04;;;;;;;19.02;17.38;;;;;;;;;;5090402;28;20256;-76
2023/12/22 04:32:31;;;;;;;21.67;19.88;;;;;;;;;;5089772;28;20210;-76
2023/12/22 04:34:58;;;;;;;19.15;17.80;;;;;;;;;;5090326;28;20198;-76
2023/12/22 04:37:25;;;;;;;18.58;17.52;;;;;;;;;;5090351;28;20233;-77
2023/12/22 04:39:52;;;;;;;18.70;17.45;;;;;;;;;;5090250;28;20260;-76
2023/12/22 04:42:21;;;;;;;17.88;16.55;;;;;;;;;;5089732;28;20252;-76
2023/12/22 04:44:48;;;;;;;18.33;16.88;;;;;;;;;;5090149;28;20207;-77
2023/12/22 04:47:14;;;;;;;17.95;16.85;;;;;;;;;;5090132;28;20288;-75
2023/12/22 04:49:41;;;;;;;18.73;17.42;;;;;;;;;;5092566;28;20284;-76
2023/12/22 04:52:08;;;;;;;17.70;16.40;;;;;;;;;;5109938;28;20271;-76
2023/12/22 04:54:35;;;;;;;18.80;17.33;;;;;;;;;;5110595;28;20255;-76
2023/12/22 04:57:02;;;;;;;16.30;15.60;;;;;;;;;;5110238;28;20275;-77
2023/12/22 04:59:31;;;;;;;16.33;15.52;;;;;;;;;;5110309;28;20206;-77
2023/12/22 05:01:57;;;;;;;17.40;16.48;;;;;;;;;;5109879;28;20206;-76
2023/12/22 05:04:24;;;;;;;17.92;16.92;;;;;;;;;;5110282;28;20258;-76
2023/12/22 05:06:51;;;;;;;17.50;16.60;;;;;;;;;;5110021;28;20226;-76
2023/12/22 05:09:18;;;;;;;17.00;15.90;;;;;;;;;;5110294;28;20210;-77
2023/12/22 05:11:46;;;;;;;17.15;16.13;;;;;;;;;;5109585;28;20202;-76
2023/12/22 05:14:13;;;;;;;17.02;16.30;;;;;;;;;;5112073;28;20214;-75
2023/12/22 05:16:41;;;;;;;16.33;15.52;;;;;;;;;;5114204;28;20221;-76
2023/12/22 05:19:08;;;;;;;16.70;16.00;;;;;;;;;;5114349;28;20210;-76
2023/12/22 05:21:35;;;;;;;16.40;15.70;;;;;;;;;;5113630;28;20206;-77
2023/12/22 05:24:02;;;;;;;21.15;16.10;;;;;;;;;;5114173;28;20267;-75
2023/12/22 05:26:30;;;;;;;16.23;15.32;;;;;;;;;;5114000;28;20301;-76
2023/12/22 05:28:57;;;;;;;15.88;15.10;;;;;;;;;;5114015;28;20234;-76
2023/12/22 05:31:24;;;;;;;16.80;15.80;;;;;;;;;;5113481;28;20206;-76
2023/12/22 05:33:53;;;;;;;16.55;15.82;;;;;;;;;;5113943;28;20210;-76
2023/12/22 05:36:20;;;;;;;17.20;16.05;;;;;;;;;;5113804;28;20222;-76
2023/12/22 05:38:47;;;;;;;16.08;15.35;;;;;;;;;;5113795;28;20616;-77
2023/12/22 05:41:14;;;;;;;16.60;15.80;;;;;;;;;;5112633;28;20210;-78
2023/12/22 05:43:42;;;;;;;15.63;14.93;;;;;;;;;;5113610;28;20210;-77
2023/12/22 05:46:10;;;;;;;16.80;15.85;;;;;;;;;;5113152;28;20373;-77
2023/12/22 05:48:38;;;;;;;17.25;16.25;;;;;;;;;;5113757;28;20255;-77
2023/12/22 05:51:13;;;;;;;16.98;15.82;;;;;;;;;;5104307;28;20803;-78
2023/12/22 05:53:40;;;;;;;15.90;15.10;;;;;;;;;;5093418;28;20206;-76
2023/12/22 05:56:07;;;;;;;16.77;15.68;;;;;;;;;;5093029;28;20218;-76
2023/12/22 05:58:34;;;;;;;15.60;14.93;;;;;;;;;;5092916;28;20198;-76
2023/12/22 06:01:01;;;;;;;16.55;15.55;;;;;;;;;;5092560;28;20211;-76
2023/12/22 06:03:28;;;;;;;15.98;15.20;;;;;;;;;;5104144;28;20213;-77
2023/12/22 06:05:56;;;;;;;17.25;16.35;;;;;;;;;;5112895;28;20244;-77
2023/12/22 06:08:24;;;;;;;17.77;16.77;;;;;;;;;;5113235;28;20210;-77
2023/12/22 06:10:51;;;;;;;17.20;16.30;;;;;;;;;;5113381;28;20224;-76
2023/12/22 06:13:19;;;;;;;18.30;16.60;;;;;;;;;;5113273;28;20201;-76
2023/12/22 06:15:46;;;;;;;17.15;16.30;;;;;;;;;;5113955;28;20229;-77
2023/12/22 06:18:13;;;;;;;17.20;16.23;;;;;;;;;;5112858;28;20275;-76
2023/12/22 06:20:40;;;;;;;18.35;16.67;;;;;;;;;;5112311;28;20242;-76
2023/12/22 06:23:07;;;;;;;17.77;16.45;;;;;;;;;;5112915;28;20206;-76
2023/12/22 06:25:36;;;;;;;20.80;18.55;;;;;;;;;;5112110;28;20225;-77
2023/12/22 06:28:03;;;;;;;18.77;16.90;;;;;;;;;;5112763;28;20234;-75
2023/12/22 06:30:31;;;;;;;19.42;17.88;;;;;;;;;;5112411;28;20202;-77
2023/12/22 06:32:58;;;;;;;19.02;17.65;;;;;;;;;;5112871;28;20206;-76
2023/12/22 06:35:25;;;;;;;20.07;16.87;;;;;;;;;;5112544;28;20724;-77
2023/12/22 06:37:54;;;;;;;17.73;16.55;;;;;;;;;;5112594;28;20499;-77
2023/12/22 06:40:21;;;;;;;18.27;17.10;;;;;;;;;;5112809;28;20234;-77
2023/12/22 06:42:49;;;;;;;18.88;16.90;;;;;;;;;;5112255;28;20475;-76
2023/12/22 06:45:16;;;;;;;18.88;17.30;;;;;;;;;;5112480;28;20275;-76
2023/12/22 06:47:43;;;;;;;19.65;17.65;;;;;;;;;;5112503;28;20299;-75
2023/12/22 06:50:10;;;;;;;19.13;17.30;;;;;;;;;;5112521;28;20202;-76
2023/12/22 06:52:37;;;;;;;18.17;17.00;;;;;;;;;;5111740;28;20738;-77
2023/12/22 06:55:04;;;;;;;19.65;17.98;;;;;;;;;;5112198;28;20202;-76
2023/12/22 06:57:31;;;;;;;18.40;16.75;;;;;;;;;;5112275;28;20229;-76
2023/12/22 07:00:00;;;;;;;19.33;17.50;;;;;;;;;;5113728;27;20284;-78
2023/12/22 07:02:27;;;;;;;18.30;17.02;;;;;;;;;;5105958;27;20210;-77
2023/12/22 07:05:13;;;;;;;20.77;17.88;;;;;;;;;;5091683;28;20663;-77
2023/12/22 07:07:40;;;;;;;18.92;17.33;;;;;;;;;;5091669;28;20288;-76
2023/12/22 07:10:07;;;;;;;19.33;18.13;;;;;;;;;;5092130;28;20203;-76
2023/12/22 07:12:34;;;;;;;19.20;17.60;;;;;;;;;;5091231;28;20502;-77
2023/12/22 07:15:03;;;;;;;17.50;16.38;;;;;;;;;;5091213;28;20214;-76
2023/12/22 07:17:30;;;;;;;19.48;17.60;;;;;;;;;;5090923;28;20223;-74
2023/12/22 07:19:57;;;;;;;18.55;17.17;;;;;;;;;;5091415;28;20605;-73
2023/12/22 07:22:24;;;;;;;19.88;17.98;;;;;;;;;;5090867;28;20203;-75
2023/12/22 07:24:52;;;;;;;21.58;18.80;;;;;;;;;;5091348;28;20206;-78
2023/12/22 07:27:19;;;;;;;19.98;18.10;;;;;;;;;;5091170;28;20245;-75
2023/12/22 07:29:46;;;;;;;18.20;17.15;;;;;;;;;;5091203;28;20279;-74
2023/12/22 07:32:14;;;;;;;20.95;19.00;;;;;;;;;;5090693;28;20207;-74
2023/12/22 07:34:41;;;;;;;20.63;18.73;;;;;;;;;;5103709;28;20577;-76
2023/12/22 07:37:08;;;;;;;17.83;17.00;;;;;;;;;;5110236;28;20758;-76
2023/12/22 07:39:36;;;;;;;20.25;18.50;;;;;;;;;;5111104;28;20708;-74
2023/12/22 07:42:03;;;;;;;18.80;17.55;;;;;;;;;;5110542;28;20213;-76
2023/12/22 07:44:30;;;;;;;18.02;16.70;;;;;;;;;;5110881;28;20202;-77
2023/12/22 07:46:58;;;;;;;18.45;17.10;;;;;;;;;;5110691;28;20260;-77
2023/12/22 07:49:26;;;;;;;19.25;17.83;;;;;;;;;;5110835;28;20712;-75
2023/12/22 07:51:54;;;;;;;18.83;16.77;;;;;;;;;;5110648;28;20267;-74
2023/12/22 07:54:21;;;;;;;20.00;18.30;;;;;;;;;;5114398;27;20208;-75
2023/12/22 07:56:48;;;;;;;19.63;18.13;;;;;;;;;;5131420;27;20459;-75
2023/12/22 07:59:15;;;;;;;18.80;17.50;;;;;;;;;;5130588;27;20262;-75
2023/12/22 08:01:43;;;;;;;19.40;17.70;;;;;;;;;;5130364;27;20458;-76
2023/12/22 08:04:10;;;;;;;20.40;18.58;;;;;;;;;;5131700;27;20538;-76
2023/12/22 08:06:38;;;;;;;19.40;17.77;;;;;;;;;;5122896;27;20264;-74
2023/12/22 08:09:05;;;;;;;19.50;17.90;;;;;;;;;;5111108;28;20616;-75
2023/12/22 08:11:32;;;;;;;19.75;17.83;;;;;;;;;;5110033;28;20996;-74
2023/12/22 08:13:59;;;;;;;32.85;29.52;;;;;;;;;;5109285;28;20254;-75
2023/12/22 08:16:26;;;;;;;20.48;18.80;;;;;;;;;;5108529;28;20234;-76
2023/12/22 08:18:53;;;;;;;20.58;19.05;;;;;;;;;;5090246;28;20203;-75
2023/12/22 08:21:21;;;;;;;80.93;46.63;;;;;;;;;;5098421;27;20202;-74
2023/12/22 08:23:49;;;;;;;29.17;23.17;;;;;;;;;;5131064;27;20454;-75
2023/12/22 08:26:17;;;;;;;19.42;17.48;;;;;;;;;;5131068;27;20306;-74
2023/12/22 08:28:45;;;;;;;18.58;17.25;;;;;;;;;;5131376;28;20201;-73
2023/12/22 08:31:12;;;;;;;19.30;17.70;;;;;;;;;;5130705;28;20549;-74
2023/12/22 08:33:40;;;;;;;18.70;17.08;;;;;;;;;;5130796;28;20451;-73
2023/12/22 08:36:07;;;;;;;20.88;18.85;;;;;;;;;;5131058;28;20244;-75
2023/12/22 08:38:34;;;;;;;18.90;17.47;;;;;;;;;;5131016;28;20205;-74
2023/12/22 08:41:03;;;;;;;18.90;17.73;;;;;;;;;;5130108;28;20913;-73
2023/12/22 08:43:30;;;;;;;18.90;17.57;;;;;;;;;;5122406;28;20467;-74
2023/12/22 08:45:57;;;;;;;18.77;17.33;;;;;;;;;;5098303;28;20451;-74
2023/12/22 08:48:24;;;;;;;19.17;17.33;;;;;;;;;;5112784;28;20600;-75
2023/12/22 08:50:51;;;;;;;18.67;17.57;;;;;;;;;;5113893;28;20815;-76
2023/12/22 08:53:17;;;;;;;20.20;18.17;;;;;;;;;;5119946;27;20815;-75
2023/12/22 08:55:47;;;;;;;18.15;17.13;;;;;;;;;;5132338;27;20213;-75
2023/12/22 08:58:16;;;;;;;17.55;16.55;;;;;;;;;;5113651;27;20194;-75
2023/12/22 09:00:43;;;;;;;20.50;18.92;;;;;;;;;;5114987;28;20612;-81
2023/12/22 09:03:10;;;;;;;17.67;16.88;;;;;;;;;;5114598;28;20198;-76
2023/12/22 09:05:37;;;;;;;18.83;17.33;;;;;;;;;;5114049;28;20293;-75
2023/12/22 09:08:04;;;;;;;18.30;16.95;;;;;;;;;;5114476;28;20261;-75
2023/12/22 09:10:32;;;;;;;18.10;17.10;;;;;;;;;;5114069;28;20202;-75
2023/12/22 09:13:00;;;;;;;18.77;17.23;;;;;;;;;;5111497;28;20241;-76
2023/12/22 09:15:28;;;;;;;19.75;18.08;;;;;;;;;;5096068;28;20214;-76
2023/12/22 09:17:55;;;;;;;17.88;16.83;;;;;;;;;;5114484;28;20222;-77
2023/12/22 09:20:22;;;;;;;17.67;16.48;;;;;;;;;;5113914;28;20209;-76
2023/12/22 09:22:50;;;;;;;17.75;16.55;;;;;;;;;;5114010;28;20240;-76
2023/12/22 09:25:16;;;;;;;17.23;16.13;;;;;;;;;;5113938;28;20692;-77
2023/12/22 09:27:43;;;;;;;18.08;16.73;;;;;;;;;;5113881;28;20487;-76
2023/12/22 09:30:11;;;;;;;16.60;15.80;;;;;;;;;;5114185;28;20206;-76
2023/12/22 09:32:39;;;;;;;16.90;15.80;;;;;;;;;;5113074;28;20206;-75
2023/12/22 09:35:07;;;;;;;16.52;15.82;;;;;;;;;;5114167;28;20206;-76
2023/12/22 09:37:34;;;;;;;18.70;17.27;;;;;;;;;;5115812;27;20233;-77
2023/12/22 09:40:01;;;;;;;16.52;15.73;;;;;;;;;;5134868;27;20258;-77
2023/12/22 09:42:28;;;;;;;17.45;16.48;;;;;;;;;;5133903;27;20209;-76
2023/12/22 09:44:57;;;;;;;16.77;15.87;;;;;;;;;;5104843;27;20214;-76
2023/12/22 09:47:25;;;;;;;17.85;16.75;;;;;;;;;;5113546;28;20488;-75
2023/12/22 09:49:53;;;;;;;17.20;16.15;;;;;;;;;;5123407;27;20726;-76
2023/12/22 09:52:20;;;;;;;17.45;16.40;;;;;;;;;;5133671;27;20218;-76
2023/12/22 09:54:48;;;;;;;18.00;16.90;;;;;;;;;;5133822;27;20205;-76
2023/12/22 09:57:15;;;;;;;17.05;15.85;;;;;;;;;;5110626;27;20457;-74
2023/12/22 09:59:43;;;;;;;17.47;16.57;;;;;;;;;;5118778;27;20209;-74
2023/12/22 10:02:11;;;;;;;16.92;15.93;;;;;;;;;;5133943;27;20933;-76
2023/12/22 10:04:38;;;;;;;16.48;15.55;;;;;;;;;;5134484;27;20205;-76
2023/12/22 10:07:07;;;;;;;17.60;16.55;;;;;;;;;;5133736;27;20319;-76
2023/12/22 10:09:35;;;;;;;16.85;16.05;;;;;;;;;;5134793;27;20270;-75
2023/12/22 10:12:02;;;;;;;16.27;15.57;;;;;;;;;;5133389;27;20254;-74
2023/12/22 10:14:31;;;;;;;17.00;16.10;;;;;;;;;;5124678;27;20577;-73
2023/12/22 10:16:58;;;;;;;18.55;16.27;;;;;;;;;;5113212;27;20241;-77
2023/12/22 10:19:25;;;;;;;16.80;15.95;;;;;;;;;;5113265;28;20202;-75
2023/12/22 10:21:52;;;;;;;18.63;17.10;;;;;;;;;;5112652;28;20206;-75
2023/12/22 10:24:38;;;;;;;18.23;16.95;;;;;;;;;;5113043;28;20210;-77
2023/12/22 10:27:06;;;;;;;18.45;17.35;;;;;;;;;;5112527;28;20366;-76
2023/12/22 10:29:33;;;;;;;17.83;16.98;;;;;;;;;;5095307;28;20214;-77
2023/12/22 10:32:02;;;;;;;18.85;17.48;;;;;;;;;;5091621;28;20716;-76
2023/12/22 10:34:29;;;;;;;16.83;16.08;;;;;;;;;;5092773;28;20211;-74
2023/12/22 10:36:55;;;;;;;18.50;17.15;;;;;;;;;;5092346;28;20245;-76
2023/12/22 10:39:22;;;;;;;16.35;15.55;;;;;;;;;;5096354;27;20224;-76
2023/12/22 10:41:50;;;;;;;18.80;17.23;;;;;;;;;;5127134;27;20226;-74
2023/12/22 10:44:19;;;;;;;16.95;16.13;;;;;;;;;;5108331;27;20657;-73
2023/12/22 10:46:48;;;;;;;16.70;15.90;;;;;;;;;;5093991;28;20580;-76
2023/12/22 10:49:15;;;;;;;17.25;16.25;;;;;;;;;;5092490;28;20217;-76
2023/12/22 10:51:42;;;;;;;17.23;16.20;;;;;;;;;;5092023;28;20218;-77
2023/12/22 10:54:09;;;;;;;16.63;15.82;;;;;;;;;;5092348;28;20448;-75
2023/12/22 10:56:35;;;;;;;16.80;15.90;;;;;;;;;;5091760;28;20588;-77
2023/12/22 10:59:04;;;;;;;16.37;15.50;;;;;;;;;;5091736;28;20202;-76
2023/12/22 11:01:34;;;;;;;15.98;15.18;;;;;;;;;;5091568;28;21056;-76
2023/12/22 11:04:03;;;;;;;17.90;16.53;;;;;;;;;;5092054;28;20216;-76
2023/12/22 11:06:31;;;;;;;16.20;15.40;;;;;;;;;;5091899;28;20523;-76
2023/12/22 11:08:58;;;;;;;16.65;15.70;;;;;;;;;;5091847;28;20258;-76
2023/12/22 11:11:29;;;;;;;17.55;16.23;;;;;;;;;;5091447;28;20206;-76
2023/12/22 11:13:57;;;;;;;17.08;15.98;;;;;;;;;;5091924;28;20275;-75
2023/12/22 11:16:25;;;;;;;17.23;16.02;;;;;;;;;;5091826;28;20315;-76
2023/12/22 11:18:55;;;;;;;15.73;15.00;;;;;;;;;;5092033;28;20206;-75
2023/12/22 11:21:23;;;;;;;17.67;16.37;;;;;;;;;;5091326;28;20207;-77
2023/12/22 11:23:51;;;;;;;16.83;15.93;;;;;;;;;;5091354;28;20476;-75
2023/12/22 11:26:18;;;;;;;16.30;15.40;;;;;;;;;;5091495;28;20230;-76
2023/12/22 11:28:46;;;;;;;16.67;15.73;;;;;;;;;;5091526;28;20414;-75
2023/12/22 11:31:14;;;;;;;15.95;15.25;;;;;;;;;;5090652;28;20703;-77
2023/12/22 11:33:44;;;;;;;16.20;15.50;;;;;;;;;;5091522;28;20207;-77
2023/12/22 11:36:13;;;;;;;16.23;15.43;;;;;;;;;;5091388;28;20626;-77
2023/12/22 11:38:40;;;;;;;16.42;15.63;;;;;;;;;;5091280;28;20207;-77
2023/12/22 11:41:07;;;;;;;16.67;15.73;;;;;;;;;;5090878;28;20199;-76
2023/12/22 11:43:35;;;;;;;17.98;16.63;;;;;;;;;;5091075;28;20734;-76
2023/12/22 11:46:03;;;;;;;17.15;16.25;;;;;;;;;;5091040;28;20207;-76
2023/12/22 11:48:30;;;;;;;17.73;16.67;;;;;;;;;;5091380;28;20226;-76
2023/12/22 11:50:57;;;;;;;16.17;15.47;;;;;;;;;;5090551;28;20510;-77
2023/12/22 11:53:26;;;;;;;16.45;15.70;;;;;;;;;;5090998;28;20480;-76
2023/12/22 11:56:03;;;;;;;17.17;16.13;;;;;;;;;;5090878;28;20206;-77
2023/12/22 11:58:37;;;;;;;16.63;15.70;;;;;;;;;;5091174;28;20199;-76
2023/12/22 12:01:04;;;;;;;15.88;15.18;;;;;;;;;;5090428;28;20499;-77
2023/12/22 12:03:32;;;;;;;19.05;17.45;;;;;;;;;;5091120;28;20286;-77
2023/12/22 12:06:11;;;;;;;17.65;16.50;;;;;;;;;;5091052;28;20211;-76
2023/12/22 12:08:39;;;;;;;16.05;15.13;;;;;;;;;;5090840;28;20211;-77
2023/12/22 12:11:06;;;;;;;16.08;15.38;;;;;;;;;;5090324;28;20206;-77
2023/12/22 12:13:34;;;;;;;17.45;16.17;;;;;;;;;;5097537;28;20228;-77
2023/12/22 12:16:02;;;;;;;17.30;16.43;;;;;;;;;;5110786;28;20652;-77
2023/12/22 12:18:30;;;;;;;16.65;15.85;;;;;;;;;;5111198;28;20501;-76
2023/12/22 12:20:57;;;;;;;16.42;15.63;;;;;;;;;;5110307;28;20714;-77
2023/12/22 12:23:25;;;;;;;17.77;16.47;;;;;;;;;;5110725;28;20265;-77
2023/12/22 12:25:54;;;;;;;16.73;15.93;;;;;;;;;;5110770;28;20456;-77
2023/12/22 12:28:26;;;;;;;18.13;17.00;;;;;;;;;;5110597;28;20685;-76
2023/12/22 12:30:59;;;;;;;16.38;15.57;;;;;;;;;;5110408;28;20267;-77
2023/12/22 12:33:26;;;;;;;17.00;16.20;;;;;;;;;;5110990;28;20187;-76
2023/12/22 12:35:54;;;;;;;16.00;15.30;;;;;;;;;;5110681;28;20500;-77
2023/12/22 12:38:22;;;;;;;16.23;15.53;;;;;;;;;;5110929;28;20202;-77
2023/12/22 12:40:51;;;;;;;16.97;16.20;;;;;;;;;;5110439;28;20444;-77
2023/12/22 12:43:19;;;;;;;16.45;15.75;;;;;;;;;;5110853;28;20492;-76
2023/12/22 12:45:47;;;;;;;16.65;15.85;;;;;;;;;;5110662;28;20210;-77
2023/12/22 12:48:17;;;;;;;17.83;16.70;;;;;;;;;;5110838;28;20229;-77
2023/12/22 12:50:44;;;;;;;16.40;15.45;;;;;;;;;;5110104;28;20580;-76
2023/12/22 12:53:11;;;;;;;16.10;15.40;;;;;;;;;;5110002;28;20198;-77
2023/12/22 12:55:38;;;;;;;16.08;15.13;;;;;;;;;;5098549;28;20519;-77
2023/12/22 12:58:06;;;;;;;16.10;15.40;;;;;;;;;;5114209;28;20219;-81
2023/12/22 13:00:36;;;;;;;17.27;16.17;;;;;;;;;;5128863;28;20451;-78
2023/12/22 13:03:04;;;;;;;16.67;15.97;;;;;;;;;;5133494;28;20453;-79
2023/12/22 13:05:31;;;;;;;17.30;16.10;;;;;;;;;;5133234;27;20471;-78
2023/12/22 13:08:08;;;;;;;16.50;15.70;;;;;;;;;;5133753;28;20540;-81
2023/12/22 13:10:35;;;;;;;16.67;15.90;;;;;;;;;;5132708;28;20203;-79
2023/12/22 13:13:03;;;;;;;16.83;16.00;;;;;;;;;;5132111;28;20446;-78
2023/12/22 13:15:29;;;;;;;16.98;16.23;;;;;;;;;;5131059;28;20865;-78
2023/12/22 13:17:58;;;;;;;16.75;16.05;;;;;;;;;;5111012;27;20298;-79
2023/12/22 13:20:25;;;;;;;16.15;15.55;;;;;;;;;;5111912;28;20202;-77
2023/12/22 13:22:52;;;;;;;17.30;16.50;;;;;;;;;;5113531;28;20224;-80
2023/12/22 13:25:21;;;;;;;16.88;16.05;;;;;;;;;;5091756;28;20494;-79
2023/12/22 13:27:48;;;;;;;16.77;15.85;;;;;;;;;;5089695;28;20269;-78
2023/12/22 13:30:15;;;;;;;18.02;17.10;;;;;;;;;;5107694;28;20206;-77
2023/12/22 13:32:42;;;;;;;15.90;15.30;;;;;;;;;;5130243;28;20198;-79
2023/12/22 13:35:11;;;;;;;16.73;15.67;;;;;;;;;;5122987;27;20455;-79
2023/12/22 13:37:42;;;;;;;16.43;15.73;;;;;;;;;;5115472;28;20464;-76
2023/12/22 13:40:09;;;;;;;17.33;16.40;;;;;;;;;;5134976;27;20478;-81
2023/12/22 13:42:37;;;;;;;17.27;16.35;;;;;;;;;;5136548;27;20435;-79
2023/12/22 13:45:05;;;;;;;16.97;16.27;;;;;;;;;;5113925;28;20220;-77
2023/12/22 13:47:32;;;;;;;15.90;15.30;;;;;;;;;;5113990;28;20471;-78
2023/12/22 13:49:59;;;;;;;16.45;15.65;;;;;;;;;;5113279;28;20238;-77
2023/12/22 13:52:26;;;;;;;17.73;16.80;;;;;;;;;;5113132;28;20206;-79
2023/12/22 13:54:56;;;;;;;16.92;16.23;;;;;;;;;;5131406;27;20459;-79
2023/12/22 13:57:23;;;;;;;16.57;15.77;;;;;;;;;;5134339;27;20221;-76
2023/12/22 13:59:51;;;;;;;16.80;16.10;;;;;;;;;;5105637;27;20983;-77
2023/12/22 14:02:20;;;;;;;17.77;16.97;;;;;;;;;;5115135;27;20456;-78
2023/12/22 14:04:47;;;;;;;19.00;18.20;;;;;;;;;;5134470;27;20447;-77
2023/12/22 14:07:14;;;;;;;20.50;19.30;;;;;;;;;;5135553;27;20488;-77
2023/12/22 14:09:43;;;;;;;18.33;17.60;;;;;;;;;;5134536;27;20486;-78
2023/12/22 14:12:10;;;;;;;20.83;19.73;;;;;;;;;;5133891;27;20504;-78
2023/12/22 14:14:36;;;;;;;19.40;18.23;;;;;;;;;;5133949;27;20459;-79
2023/12/22 14:17:04;;;;;;;19.47;18.50;;;;;;;;;;5123001;27;20314;-79
2023/12/22 14:19:31;;;;;;;18.90;18.10;;;;;;;;;;5112921;28;20467;-79